airplane image

note

mic

electronics

Fly Music Sound

What-else

 

 

 

 

LSZB

[Source: ADDS]
METAR
LSZB 190450Z VRB01KT 9999 SCT090 BKN210 15/14 Q1020 NOSIG =
TAF
LSZB 190225Z 1903/1912 VRB03KT 9999 FEW025 BKN090 =

LSZG

[Source: ADDS]
METAR
LSZG 190450Z AUTO VRB01KT 9999 SCT060 BKN230 15/13 Q1020 =
TAF

LSZH

[Source: ADDS]
METAR
LSZH 190450Z 00000KT 9999 FEW017 SCT022 14/13 Q1020 NOSIG =
TAF
LSZH 190225Z 1903/2009 VRB03KT 9999 FEW020 BKN240 TX22/1915Z TN14/1905Z TN12/2005Z BECMG 1910/1913 30010KT BECMG 1916/1919 VRB03KT =